Maldives Meteorological Service

METAR

Station
VRMM
METAR VRMM 190900Z 27012KT 9999 FEW017 FEW018CB SCT022 BKN260 28/24 Q1009 CB E TEMPO 5000 -TSRA=
VRMH
METAR VRMH 190900Z 28012KT 9999 FEW017 FEW18CB OVC250 30/25 Q1008 CB ENE=
VRMK
METAR VRMK 190900Z 23007KT 9999 FEW018TCU BKN260 31/25 Q1009=
VRMT
METAR VRMT 190900Z 23007KT 9999 FEW018TCU BKN270 30/26 Q1009=
VRMG
METAR VRMG 190900Z 22009KT 9999 FEW017TCU SCT110 BKN260 31/26 Q1009 TEMPO FEW018CB=
Last Updated : 2018-08-19 13:59:55

SPECI

Station
VRMM
VRMH
VRMK
VRMT
VRMG
Last Updated : 2018-08-19 13:59:55